Date,TemperatureHighF,TemperatureAvgF,TemperatureLowF,DewpointHighF,DewpointAvgF,DewpointLowF,HumidityHigh,HumidityAvg,HumidityLow,PressureMaxIn,PressureMinIn,WindSpeedMaxMPH,WindSpeedAvgMPH,GustSpeedMaxMPH,PrecipitationSumIn
2013-2-1,9.1,-4.3,-16.8,-13.2,-31.0,-40.0,48,15,15,30.26,30.05,38,38,0,4.05
2013-2-2,21.9,1.8,-15.5,9.0,-28.2,-40.0,72,16,15,30.18,29.85,38,37,3,4.05
2013-2-3,17.4,2.5,-12.5,9.0,-27.5,-40.0,69,16,15,30.05,29.85,38,38,3,4.05
2013-2-4,22.6,0.7,-20.0,-7.7,-25.1,-40.0,69,16,15,30.07,29.82,38,37,0,4.05
2013-2-5,25.2,11.7,-4.4,9.0,-23.1,-34.8,73,17,15,30.10,29.64,38,37,3,4.05
2013-2-6,22.8,9.7,-8.7,14.9,-24.8,-39.3,85,17,15,30.20,29.85,38,37,38,4.05
2013-2-7,22.5,19.6,10.6,19.7,-17.2,-25.0,92,17,15,30.18,29.79,38,37,38,4.05
2013-2-9,29.1,21.1,16.9,16.4,-16.7,-20.4,90,16,15,30.11,30.00,38,37,38,0.00
2013-2-10,31.5,25.5,19.8,18.2,-13.8,-18.3,92,16,15,30.00,29.28,38,38,38,0.00
2013-2-11,20.8,19.4,13.8,19.4,-17.2,-19.2,94,18,15,30.31,29.74,38,36,0,0.00
2013-2-12,22.3,18.5,13.8,19.6,-18.0,-22.0,96,17,15,30.31,29.76,38,37,0,0.00
2013-2-13,46.0,32.6,20.8,29.9,-3.5,-17.0,98,24,15,29.64,29.51,38,32,38,4.16
2013-2-14,37.0,23.7,13.8,22.6,-14.8,-22.7,96,16,15,30.31,29.56,38,37,38,4.16
2013-2-15,21.4,4.5,-4.7,7.3,-18.3,-36.2,84,39,15,30.31,30.07,38,23,0,4.16
2013-2-16,20.3,-0.5,-15.0,5.6,-15.2,-40.0,82,46,15,30.31,30.07,38,16,0,4.16
2013-2-17,28.0,3.2,-20.4,5.6,-12.5,-30.2,76,43,15,30.31,29.86,38,7,38,4.16
2013-2-18,29.5,26.7,18.3,26.5,1.9,-14.7,96,46,15,30.06,29.43,38,23,38,4.16
2013-2-19,24.8,9.3,1.8,23.4,-10.6,-31.6,95,47,15,30.31,29.44,38,19,38,4.16
2013-2-20,27.7,12.7,2.7,15.9,-13.2,-30.9,90,35,15,30.45,30.06,38,24,38,4.16
2013-2-21,20.3,17.5,2.1,9.7,-18.4,-31.3,77,18,15,30.47,30.14,38,36,38,4.16
2013-2-22,26.1,20.4,13.8,19.7,-16.7,-21.1,84,17,15,30.31,29.79,38,37,38,4.16
2013-2-23,25.7,24.4,21.0,21.8,-13.9,-17.4,92,17,15,29.85,29.77,38,37,38,0.00
2013-2-24,32.5,25.2,19.8,21.2,-13.9,-18.3,93,16,15,30.06,29.85,38,38,38,4.18
2013-2-25,28.8,27.9,26.8,25.1,-10.7,-13.1,90,18,15,30.04,30.01,38,36,0,4.18
2013-2-26,46.0,30.1,15.3,25.2,-9.5,-18.3,95,17,15,30.04,29.79,38,37,38,4.18
2013-2-27,32.7,28.7,25.9,23.6,-11.2,-13.8,84,16,15,29.88,29.73,38,38,38,4.18
2013-2-28,27.9,22.4,17.6,16.7,-15.7,-19.9,80,16,15,30.20,29.87,38,37,38,4.18